createdAt,value
2022-10-13T00:01:34.114Z,100389.59
2022-10-13T00:04:02.692Z,100392.16
2022-10-13T00:06:31.903Z,100387.84
2022-10-13T00:09:00.904Z,100392.16
2022-10-13T00:11:31.217Z,100379.31
2022-10-13T00:14:01.896Z,100388.63
2022-10-13T00:16:33.742Z,100392.88
2022-10-13T00:19:02.715Z,100392.78
2022-10-13T00:21:32.151Z,100386.91
2022-10-13T00:24:00.656Z,100380.94
2022-10-13T00:26:29.483Z,100379.28
2022-10-13T00:28:59.724Z,100374.13
2022-10-13T00:31:31.396Z,100382.69
2022-10-13T00:34:02.877Z,100369.06
2022-10-13T00:36:32.774Z,100368.19
2022-10-13T00:39:01.434Z,100361.38
2022-10-13T00:41:30.134Z,100377.59
2022-10-13T00:44:01.492Z,100369.94
2022-10-13T00:46:32.444Z,100345.94
2022-10-13T00:49:07.954Z,100374.19
2022-10-13T00:51:40.934Z,100368.19
2022-10-13T00:54:12.972Z,100363.94
2022-10-13T00:56:43.095Z,100363.97
2022-10-13T00:59:19.173Z,100368.19
2022-10-13T01:01:47.801Z,100357.88
2022-10-13T01:04:19.063Z,100368.09
2022-10-13T01:06:49.487Z,100360.44
2022-10-13T01:09:18.305Z,100362.97
2022-10-13T01:12:04.249Z,100360.44
2022-10-13T01:14:39.707Z,100350.16
2022-10-13T01:17:20.442Z,100363.81
2022-10-13T01:20:30.243Z,100353.59
2022-10-13T01:23:20.005Z,100353.59
2022-10-13T01:26:10.611Z,100357.84
2022-10-13T01:29:09.797Z,100351.94
2022-10-13T01:31:45.160Z,100352.81
2022-10-13T01:34:22.547Z,100350.28
2022-10-13T01:37:01.965Z,100336.59
2022-10-13T01:39:39.233Z,100357.09
2022-10-13T01:42:15.854Z,100358.84
2022-10-13T01:44:51.112Z,100357.16
2022-10-13T01:47:24.546Z,100348.63
2022-10-13T01:49:56.415Z,100353.75
2022-10-13T01:52:28.922Z,100346.91
2022-10-13T01:54:57.656Z,100340.94
2022-10-13T01:57:34.673Z,100342.63
2022-10-13T02:00:07.983Z,100334.97
2022-10-13T02:02:55.494Z,100343.47
2022-10-13T02:05:34.515Z,100333.25
2022-10-13T02:08:07.766Z,100341.75
2022-10-13T02:10:42.483Z,100333.22
2022-10-13T02:13:15.946Z,100331.50
2022-10-13T02:15:49.231Z,100328.13
2022-10-13T02:18:23.477Z,100326.41
2022-10-13T02:20:53.314Z,100319.59
2022-10-13T02:23:22.981Z,100319.56
2022-10-13T02:25:52.347Z,100320.44
2022-10-13T02:28:21.506Z,100320.41
2022-10-13T02:30:50.183Z,100333.25
2022-10-13T02:33:20.481Z,100323.88
2022-10-13T02:35:49.242Z,100326.41
2022-10-13T02:38:18.320Z,100326.41
2022-10-13T02:40:47.016Z,100322.94
2022-10-13T02:43:15.925Z,100312.69
2022-10-13T02:45:44.505Z,100315.31
2022-10-13T02:48:13.262Z,100307.63
2022-10-13T02:50:43.491Z,100311.91
2022-10-13T02:53:12.162Z,100307.66
2022-10-13T02:55:40.775Z,100305.94
2022-10-13T02:58:09.433Z,100311.88
2022-10-13T03:00:39.939Z,100305.94
2022-10-13T03:03:08.773Z,100310.22
2022-10-13T03:05:37.564Z,100311.88
2022-10-13T03:08:08.024Z,100315.28
2022-10-13T03:10:37.204Z,100311.03
2022-10-13T03:13:06.053Z,100308.41
2022-10-13T03:15:34.871Z,100313.59
2022-10-13T03:18:06.575Z,100316.16
2022-10-13T03:20:35.365Z,100311.91
2022-10-13T03:23:04.077Z,100313.63
2022-10-13T03:25:34.660Z,100305.97
2022-10-13T03:28:03.665Z,100300.84
2022-10-13T03:30:32.415Z,100312.78
2022-10-13T03:33:00.961Z,100304.28
2022-10-13T03:35:29.714Z,100293.19
2022-10-13T03:37:58.874Z,100302.56
2022-10-13T03:40:29.552Z,100298.28
2022-10-13T03:42:59.554Z,100307.69
2022-10-13T03:45:28.964Z,100306.84
2022-10-13T03:47:57.541Z,100311.06
2022-10-13T03:50:26.693Z,100304.28
2022-10-13T03:52:56.082Z,100305.97
2022-10-13T03:55:25.013Z,100304.28
2022-10-13T03:57:53.737Z,100305.94
2022-10-13T04:00:23.966Z,100311.06
2022-10-13T04:02:52.995Z,100308.50
2022-10-13T04:05:21.565Z,100302.56
2022-10-13T04:07:50.264Z,100312.81
2022-10-13T04:10:20.525Z,100306.84
2022-10-13T04:12:51.336Z,100306.00
2022-10-13T04:15:20.003Z,100307.72
2022-10-13T04:17:50.081Z,100289.78
2022-10-13T04:20:18.984Z,100288.94
2022-10-13T04:22:47.584Z,100298.34
2022-10-13T04:25:16.217Z,100306.03
2022-10-13T04:27:44.865Z,100295.78
2022-10-13T04:30:13.926Z,100300.06
2022-10-13T04:32:42.577Z,100306.91
2022-10-13T04:35:15.077Z,100300.94
2022-10-13T04:37:45.227Z,100295.81
2022-10-13T04:40:15.664Z,100300.09
2022-10-13T04:42:44.257Z,100295.81
2022-10-13T04:45:12.837Z,100294.97
2022-10-13T04:47:43.468Z,100250.53
2022-10-13T04:50:12.177Z,100294.97
2022-10-13T04:52:42.261Z,100293.25
2022-10-13T04:55:11.098Z,100306.06
2022-10-13T04:57:39.766Z,100291.56
2022-10-13T05:00:09.909Z,100297.53
2022-10-13T05:02:39.600Z,100297.53
2022-10-13T05:05:09.358Z,100302.66
2022-10-13T05:07:38.160Z,100295.00
2022-10-13T05:10:09.018Z,100299.25
2022-10-13T05:12:37.892Z,100301.81
2022-10-13T05:15:07.348Z,100303.50
2022-10-13T05:17:36.989Z,100306.94
2022-10-13T05:20:11.650Z,100296.72
2022-10-13T05:22:40.836Z,100295.88
2022-10-13T05:25:11.131Z,100300.94
2022-10-13T05:27:39.908Z,100306.06
2022-10-13T05:30:12.537Z,100303.50
2022-10-13T05:32:41.286Z,100307.78
2022-10-13T05:35:11.001Z,100294.13
2022-10-13T05:37:42.257Z,100306.09
2022-10-13T05:40:13.298Z,100306.97
2022-10-13T05:42:42.398Z,100295.88
2022-10-13T05:45:12.983Z,100312.09
2022-10-13T05:47:41.679Z,100311.25
2022-10-13T05:50:11.819Z,100306.13
2022-10-13T05:52:44.223Z,100302.69
2022-10-13T05:55:17.318Z,100308.69
2022-10-13T05:57:49.688Z,100307.88
2022-10-13T06:00:20.932Z,100299.31
2022-10-13T06:02:53.025Z,100313.84
2022-10-13T06:05:28.095Z,100311.28
2022-10-13T06:07:58.425Z,100314.66
2022-10-13T06:10:28.838Z,100307.84
2022-10-13T06:12:57.678Z,100315.53
2022-10-13T06:15:28.318Z,100304.41
2022-10-13T06:17:58.379Z,100308.72
2022-10-13T06:20:27.908Z,100312.97
2022-10-13T06:22:56.666Z,100318.94
2022-10-13T06:25:25.268Z,100299.31
2022-10-13T06:27:55.365Z,100316.41
2022-10-13T06:30:24.195Z,100314.72
2022-10-13T06:32:54.687Z,100321.56
2022-10-13T06:35:23.398Z,100320.72
2022-10-13T06:37:53.534Z,100316.47
2022-10-13T06:40:22.289Z,100319.03
2022-10-13T06:42:51.725Z,100316.44
2022-10-13T06:45:25.630Z,100324.97
2022-10-13T06:47:54.751Z,100321.59
2022-10-13T06:50:23.620Z,100323.28
2022-10-13T06:52:53.306Z,100325.00
2022-10-13T06:55:21.978Z,100315.59
2022-10-13T06:57:50.959Z,100327.56
2022-10-13T07:00:19.819Z,100329.25
2022-10-13T07:02:53.203Z,100319.84
2022-10-13T07:05:21.815Z,100319.03
2022-10-13T07:07:54.151Z,100318.16
2022-10-13T07:10:23.187Z,100325.88
2022-10-13T07:12:51.737Z,100323.31
2022-10-13T07:15:20.404Z,100324.16
2022-10-13T07:17:54.260Z,100321.56
2022-10-13T07:20:23.057Z,100313.00
2022-10-13T07:22:54.764Z,100308.75
2022-10-13T07:25:23.877Z,100281.44
2022-10-13T07:27:52.478Z,100311.28
2022-10-13T07:30:21.343Z,100305.31
2022-10-13T07:32:50.317Z,100260.91
2022-10-13T07:35:22.611Z,100307.84
2022-10-13T07:37:54.063Z,100302.69
2022-10-13T07:40:22.580Z,100301.00
2022-10-13T07:42:51.208Z,100316.38
2022-10-13T07:45:19.890Z,100317.22
2022-10-13T07:47:48.946Z,100312.91
2022-10-13T07:50:17.669Z,100289.00
2022-10-13T07:52:47.917Z,100306.91
2022-10-13T07:55:17.103Z,100306.84
2022-10-13T07:57:45.638Z,100309.41
2022-10-13T08:00:14.957Z,100305.09
2022-10-13T08:02:43.779Z,100313.66
2022-10-13T08:05:12.443Z,100314.50
2022-10-13T08:07:41.783Z,100309.38
2022-10-13T08:10:12.768Z,100305.94
2022-10-13T08:12:41.729Z,100313.63
2022-10-13T08:15:11.513Z,100308.50
2022-10-13T08:17:40.247Z,100305.91
2022-10-13T08:20:09.409Z,100288.84
2022-10-13T08:22:38.106Z,100299.09
2022-10-13T08:25:07.853Z,100297.31
2022-10-13T08:27:50.777Z,100299.88
2022-10-13T08:30:21.133Z,100295.56
2022-10-13T08:32:49.757Z,100295.59
2022-10-13T08:35:18.559Z,100295.53
2022-10-13T08:37:47.067Z,100290.31
2022-10-13T08:40:21.340Z,100289.41
2022-10-13T08:42:53.623Z,100288.56
2022-10-13T08:45:40.750Z,100292.78
2022-10-13T08:48:17.089Z,100288.47
2022-10-13T08:50:49.517Z,100282.38
2022-10-13T08:53:27.254Z,100291.78
2022-10-13T08:55:59.500Z,100295.16
2022-10-13T08:58:32.375Z,100294.19
2022-10-13T09:01:13.501Z,100281.28
2022-10-13T09:03:52.298Z,100286.31
2022-10-13T09:06:29.052Z,100282.75
2022-10-13T09:09:00.268Z,100280.13
2022-10-13T09:11:32.539Z,100285.22
2022-10-13T09:14:05.196Z,100272.22
2022-10-13T09:16:37.757Z,100277.22
2022-10-13T09:19:21.121Z,100272.78
2022-10-13T09:21:50.668Z,100253.03
2022-10-13T09:24:21.529Z,100275.88
2022-10-13T09:26:52.907Z,100277.44
2022-10-13T09:29:27.806Z,100266.09
2022-10-13T09:32:14.628Z,100268.38
2022-10-13T09:34:46.950Z,100272.50
2022-10-13T09:37:21.573Z,100265.63
2022-10-13T09:40:03.549Z,100264.56
2022-10-13T09:42:33.248Z,100264.47
2022-10-13T09:45:16.421Z,100258.09
2022-10-13T09:47:53.485Z,100232.97
2022-10-13T09:50:26.316Z,100248.69
2022-10-13T09:53:17.249Z,100239.16
2022-10-13T09:55:49.399Z,100247.09
2022-10-13T09:58:29.809Z,100242.94
2022-10-13T10:01:01.109Z,100244.47
2022-10-13T10:03:34.797Z,100241.34
2022-10-13T10:06:07.259Z,100240.91
2022-10-13T10:09:02.038Z,100243.16
2022-10-13T10:11:39.790Z,100249.22
2022-10-13T10:14:22.552Z,100242.88
2022-10-13T10:16:59.973Z,100241.00
2022-10-13T10:19:37.793Z,100236.31
2022-10-13T10:22:14.124Z,100234.09
2022-10-13T10:24:51.682Z,100229.94
2022-10-13T10:27:29.963Z,100220.69
2022-10-13T10:30:03.772Z,100221.34
2022-10-13T10:32:44.511Z,100206.75
2022-10-13T10:35:17.377Z,100219.31
2022-10-13T10:38:02.690Z,100221.72
2022-10-13T10:40:40.781Z,100212.16
2022-10-13T10:43:27.577Z,100218.75
2022-10-13T10:45:58.259Z,100209.50
2022-10-13T10:48:36.370Z,100215.19
2022-10-13T10:51:09.299Z,100212.69
2022-10-13T10:53:43.801Z,100197.78
2022-10-13T10:56:18.963Z,100209.53
2022-10-13T10:58:55.419Z,100194.84
2022-10-13T11:01:37.279Z,100202.03
2022-10-13T11:04:36.151Z,100202.63
2022-10-13T11:07:05.360Z,100200.09
2022-10-13T11:10:03.273Z,100191.38
2022-10-13T11:13:02.835Z,100192.47
2022-10-13T11:15:33.344Z,100191.81
2022-10-13T11:18:02.062Z,100189.28
2022-10-13T11:20:51.503Z,100180.84
2022-10-13T11:23:32.631Z,100176.63
2022-10-13T11:26:32.882Z,100173.16
2022-10-13T11:29:01.605Z,100160.31
2022-10-13T11:31:35.977Z,100169.66
2022-10-13T11:34:05.367Z,100164.47
2022-10-13T11:36:53.497Z,100157.81
2022-10-13T11:39:51.820Z,100162.84
2022-10-13T11:42:46.192Z,100149.91
2022-10-13T11:45:35.401Z,100146.41
2022-10-13T11:48:29.854Z,100145.34
2022-10-13T11:51:16.377Z,100132.50
2022-10-13T11:53:55.043Z,100141.13
2022-10-13T11:56:39.500Z,100147.13
2022-10-13T11:59:21.512Z,100139.97
2022-10-13T12:01:54.492Z,100143.34
2022-10-13T12:04:25.924Z,100133.53
2022-10-13T12:06:58.672Z,100134.34
2022-10-13T12:09:28.123Z,100116.41
2022-10-13T12:12:03.782Z,100120.41
2022-10-13T12:17:05.825Z,100120.72
2022-10-13T12:19:34.905Z,100121.69
2022-10-13T12:22:04.174Z,100122.84
2022-10-13T12:24:32.754Z,100124.00
2022-10-13T12:27:12.745Z,100120.56
2022-10-13T12:29:42.431Z,100117.88
2022-10-13T12:32:21.383Z,100107.34
2022-10-13T12:34:50.868Z,100105.31
2022-10-13T12:37:28.699Z,100104.22
2022-10-13T12:39:59.007Z,100104.97
2022-10-13T12:42:32.896Z,100090.97
2022-10-13T12:45:03.754Z,100102.84
2022-10-13T12:47:50.667Z,100094.03
2022-10-13T12:50:36.718Z,100094.28
2022-10-13T12:53:16.637Z,100091.97
2022-10-13T12:55:59.237Z,100086.41
2022-10-13T12:58:32.818Z,100085.59
2022-10-13T13:01:23.068Z,100089.19
2022-10-13T13:03:58.575Z,100080.97
2022-10-13T13:06:33.077Z,100074.00
2022-10-13T13:09:22.001Z,100075.28
2022-10-13T13:12:04.516Z,100069.97
2022-10-13T13:14:40.081Z,100072.06
2022-10-13T13:17:17.499Z,100064.66
2022-10-13T13:19:58.611Z,100057.44
2022-10-13T13:22:27.336Z,100059.25
2022-10-13T13:24:56.050Z,100057.75
2022-10-13T13:27:29.789Z,100052.13
2022-10-13T13:30:00.054Z,100051.72
2022-10-13T13:32:31.379Z,100052.41
2022-10-13T13:35:00.061Z,100050.28
2022-10-13T13:37:32.307Z,100051.13
2022-10-13T13:40:01.269Z,100032.09
2022-10-13T13:42:30.131Z,100042.41
2022-10-13T13:45:00.160Z,100045.19
2022-10-13T13:47:30.028Z,100040.03
2022-10-13T13:50:00.846Z,100035.69
2022-10-13T13:52:29.481Z,100037.38
2022-10-13T13:54:58.112Z,100034.47
2022-10-13T13:57:26.831Z,100040.56
2022-10-13T13:59:55.287Z,100036.84
2022-10-13T14:02:26.048Z,100031.63
2022-10-13T14:04:54.899Z,100037.84
2022-10-13T14:07:24.028Z,100035.97
2022-10-13T14:09:53.777Z,100044.63
2022-10-13T14:12:24.244Z,100042.13
2022-10-13T14:14:52.861Z,100039.00
2022-10-13T14:17:25.347Z,100039.38
2022-10-13T14:19:54.021Z,100031.94
2022-10-13T14:22:22.966Z,100039.06
2022-10-13T14:24:52.299Z,100029.00
2022-10-13T14:27:21.081Z,100027.38
2022-10-13T14:29:49.658Z,100030.94
2022-10-13T14:32:18.652Z,100022.53
2022-10-13T14:34:48.903Z,100034.66
2022-10-13T14:37:22.137Z,100026.16
2022-10-13T14:39:51.853Z,100024.53
2022-10-13T14:42:20.459Z,100030.66
2022-10-13T14:44:49.127Z,100030.00
2022-10-13T14:47:17.974Z,100028.34
2022-10-13T14:49:48.277Z,100025.81
2022-10-13T14:52:16.790Z,100022.63
2022-10-13T14:54:45.578Z,100025.50
2022-10-13T14:57:16.205Z,100023.84
2022-10-13T14:59:45.963Z,100030.81
2022-10-13T15:02:17.696Z,100027.50
2022-10-13T15:04:55.890Z,100031.00
2022-10-13T15:07:24.548Z,100021.69
2022-10-13T15:10:04.516Z,100022.63
2022-10-13T15:12:35.503Z,100012.41
2022-10-13T15:15:04.350Z,100015.97
2022-10-13T15:17:33.450Z,100011.09
2022-10-13T15:20:04.043Z,100021.59
2022-10-13T15:22:32.830Z,100025.28
2022-10-13T15:25:01.429Z,100029.16
2022-10-13T15:27:30.450Z,100021.88
2022-10-13T15:29:59.080Z,100018.69
2022-10-13T15:32:27.818Z,100006.28
2022-10-13T15:34:56.809Z,100014.97
2022-10-13T15:37:27.790Z,100006.59
2022-10-13T15:39:57.556Z,100009.47
2022-10-13T15:42:26.441Z,100014.78
2022-10-13T15:45:09.298Z,100012.38
2022-10-13T15:47:39.315Z,100008.31
2022-10-13T15:50:08.862Z,100009.41
2022-10-13T15:52:41.190Z,100001.88
2022-10-13T15:55:11.129Z,100006.28
2022-10-13T15:57:40.618Z,99997.03
2022-10-13T16:00:12.042Z,100003.03
2022-10-13T16:02:41.800Z,100003.13
2022-10-13T16:05:13.390Z,100002.41
2022-10-13T16:07:43.531Z,100009.34
2022-10-13T16:10:14.752Z,100000.94
2022-10-13T16:12:49.212Z,100008.69
2022-10-13T16:15:19.238Z,100010.56
2022-10-13T16:17:47.930Z,100006.34
2022-10-13T16:20:16.640Z,100010.69
2022-10-13T16:22:48.159Z,100002.22
2022-10-13T16:25:17.178Z,100007.44
2022-10-13T16:27:46.000Z,100000.69
2022-10-13T16:30:14.888Z,100005.84
2022-10-13T16:32:43.471Z,100007.66
2022-10-13T16:35:12.570Z,100010.28
2022-10-13T16:37:41.355Z,100001.78
2022-10-13T16:40:12.709Z,100003.50
2022-10-13T16:42:42.841Z,100001.03
2022-10-13T16:45:11.832Z,99999.41
2022-10-13T16:47:40.444Z,99999.47
2022-10-13T16:50:10.623Z,99980.81
2022-10-13T16:52:39.513Z,100002.09
2022-10-13T16:55:09.423Z,100006.38
2022-10-13T16:57:39.483Z,100002.06
2022-10-13T17:00:09.855Z,100002.97
2022-10-13T17:02:38.644Z,99995.34
2022-10-13T17:05:07.443Z,99999.69
2022-10-13T17:07:36.083Z,99998.84
2022-10-13T17:10:05.282Z,100009.97
2022-10-13T17:12:34.071Z,100010.84
2022-10-13T17:15:04.384Z,100013.47
2022-10-13T17:17:33.190Z,100010.06
2022-10-13T17:20:03.153Z,100005.81
2022-10-13T17:22:31.810Z,100008.34
2022-10-13T17:25:00.424Z,99996.41
2022-10-13T17:27:29.170Z,100010.09
2022-10-13T17:29:57.794Z,99993.81
2022-10-13T17:32:28.412Z,99999.78
2022-10-13T17:34:57.531Z,99998.16
2022-10-13T17:37:26.624Z,100003.28
2022-10-13T17:39:55.312Z,100001.63
2022-10-13T17:42:24.049Z,100002.50
2022-10-13T17:44:52.703Z,100008.50
2022-10-13T17:47:21.681Z,100008.56
2022-10-13T17:49:52.264Z,100006.88
2022-10-13T17:52:22.293Z,100007.72
2022-10-13T17:54:51.192Z,100008.63
2022-10-13T17:57:20.193Z,100006.91
2022-10-13T17:59:49.002Z,100007.78
2022-10-13T18:02:19.335Z,100008.69
2022-10-13T18:04:48.214Z,100015.50
2022-10-13T18:07:18.588Z,100013.81
2022-10-13T18:09:47.534Z,100008.78
2022-10-13T18:12:16.475Z,100014.75
2022-10-13T18:14:45.144Z,100007.09
2022-10-13T18:17:13.713Z,100010.50
2022-10-13T18:19:43.076Z,100016.50
2022-10-13T18:22:11.913Z,100013.97
2022-10-13T18:24:42.023Z,100013.97
2022-10-13T18:27:10.801Z,100018.28
2022-10-13T18:29:39.562Z,100014.00
2022-10-13T18:32:08.237Z,100010.59
2022-10-13T18:34:36.879Z,100018.31
2022-10-13T18:37:05.771Z,100017.50
2022-10-13T18:39:35.295Z,100010.69
2022-10-13T18:42:05.224Z,100010.69
2022-10-13T18:44:38.093Z,100010.75
2022-10-13T18:47:07.131Z,100007.31
2022-10-13T18:49:35.754Z,100004.78
2022-10-13T18:52:04.844Z,100005.66
2022-10-13T18:54:33.612Z,100009.03
2022-10-13T18:57:02.220Z,100007.31
2022-10-13T18:59:32.252Z,100009.03
2022-10-13T19:02:01.090Z,100013.34
2022-10-13T19:04:29.690Z,100009.06
2022-10-13T19:06:58.447Z,99963.09
2022-10-13T19:09:27.055Z,100015.88
2022-10-13T19:11:57.022Z,100017.59
2022-10-13T19:14:25.972Z,100019.31
2022-10-13T19:17:01.600Z,100020.22
2022-10-13T19:19:31.805Z,100015.94
2022-10-13T19:22:02.597Z,100017.66
2022-10-13T19:24:31.544Z,100011.69
2022-10-13T19:27:00.191Z,100007.41
2022-10-13T19:29:30.611Z,100010.00
2022-10-13T19:32:01.410Z,100015.13
2022-10-13T19:34:30.114Z,100005.72
2022-10-13T19:37:02.064Z,100010.88
2022-10-13T19:39:31.612Z,100010.03
2022-10-13T19:42:00.093Z,99975.94
2022-10-13T19:44:29.180Z,100009.19
2022-10-13T19:46:57.911Z,100008.34
2022-10-13T19:49:27.966Z,100006.66
2022-10-13T19:51:57.299Z,100016.03
2022-10-13T19:54:30.192Z,100016.03
2022-10-13T19:57:02.390Z,100016.03
2022-10-13T19:59:30.934Z,100012.63
2022-10-13T20:01:59.584Z,100007.47
2022-10-13T20:04:29.595Z,100012.59
2022-10-13T20:06:58.392Z,100007.47
2022-10-13T20:09:27.455Z,99996.38
2022-10-13T20:11:56.993Z,100008.28
2022-10-13T20:14:25.633Z,100004.94
2022-10-13T20:16:57.231Z,100005.78
2022-10-13T20:19:25.909Z,100011.75
2022-10-13T20:21:56.882Z,100013.47
2022-10-13T20:24:25.766Z,100007.53
2022-10-13T20:26:54.924Z,100007.53
2022-10-13T20:29:24.591Z,100007.50
2022-10-13T20:31:53.231Z,99998.97
2022-10-13T20:34:21.750Z,99994.72
2022-10-13T20:36:51.845Z,100012.63
2022-10-13T20:39:22.740Z,100009.22
2022-10-13T20:41:51.490Z,100006.66
2022-10-13T20:44:21.810Z,100004.13
2022-10-13T20:46:50.510Z,100004.13
2022-10-13T20:49:19.251Z,100008.41
2022-10-13T20:51:48.594Z,99996.44
2022-10-13T20:54:17.620Z,99993.91
2022-10-13T20:56:48.072Z,100002.44
2022-10-13T20:59:16.763Z,99997.31
2022-10-13T21:01:45.469Z,100000.75
2022-10-13T21:04:14.345Z,99999.91
2022-10-13T21:06:43.382Z,99987.97
2022-10-13T21:09:12.250Z,100002.44
2022-10-13T21:11:44.001Z,100003.28
2022-10-13T21:14:14.165Z,100000.75
2022-10-13T21:16:42.803Z,99997.31
2022-10-13T21:19:13.210Z,100005.00
2022-10-13T21:21:41.969Z,99998.16
2022-10-13T21:24:11.991Z,100006.72
2022-10-13T21:26:42.399Z,100001.59
2022-10-13T21:29:16.837Z,99999.03
2022-10-13T21:31:45.704Z,99991.34
2022-10-13T21:34:14.593Z,99991.34
2022-10-13T21:36:45.312Z,99992.19
2022-10-13T21:39:15.222Z,99980.28
2022-10-13T21:41:44.133Z,99985.41
2022-10-13T21:44:14.964Z,99977.72
2022-10-13T21:46:45.063Z,99982.00
2022-10-13T21:49:13.715Z,99982.84
2022-10-13T21:51:42.403Z,99985.41
2022-10-13T21:54:13.609Z,99986.25
2022-10-13T21:56:43.118Z,99983.69
2022-10-13T21:59:13.039Z,99985.41
2022-10-13T22:01:42.608Z,99982.00
2022-10-13T22:04:16.334Z,99978.59
2022-10-13T22:06:45.412Z,99976.91
2022-10-13T22:09:15.273Z,99972.63
2022-10-13T22:11:45.096Z,99970.94
2022-10-13T22:14:13.988Z,99968.38
2022-10-13T22:16:44.613Z,99962.44
2022-10-13T22:19:16.234Z,99962.41
2022-10-13T22:21:47.625Z,99966.69
2022-10-13T22:24:19.402Z,99959.03
2022-10-13T22:26:49.593Z,99959.91
2022-10-13T22:29:21.309Z,99964.97
2022-10-13T22:31:50.335Z,99970.06
2022-10-13T22:34:20.362Z,99967.53
2022-10-13T22:36:49.394Z,99963.25
2022-10-13T22:39:18.214Z,99949.63
2022-10-13T22:41:46.957Z,99960.72
2022-10-13T22:44:15.694Z,99960.69
2022-10-13T22:46:44.493Z,99959.84
2022-10-13T22:49:16.195Z,99959.84
2022-10-13T22:51:46.325Z,99960.72
2022-10-13T22:54:14.976Z,99953.91
2022-10-13T22:56:43.793Z,99956.44
2022-10-13T22:59:13.940Z,99956.44
2022-10-13T23:01:42.718Z,99957.28
2022-10-13T23:04:11.446Z,99936.00
2022-10-13T23:06:40.176Z,99955.59
2022-10-13T23:09:13.922Z,99960.72
2022-10-13T23:11:42.702Z,99961.53
2022-10-13T23:14:14.214Z,99959.84
2022-10-13T23:16:42.995Z,99956.44
2022-10-13T23:19:11.606Z,99953.91
2022-10-13T23:21:40.414Z,99935.16
2022-10-13T23:24:12.315Z,99958.16
2022-10-13T23:26:41.052Z,99955.59
2022-10-13T23:29:10.851Z,99953.03
2022-10-13T23:31:39.565Z,99900.22
2022-10-13T23:34:08.091Z,99949.66
2022-10-13T23:36:36.753Z,99943.69
2022-10-13T23:39:07.781Z,99946.22
2022-10-13T23:41:38.508Z,99939.44
2022-10-13T23:44:07.292Z,99946.22
2022-10-13T23:46:35.934Z,99942.81
2022-10-13T23:49:05.254Z,99949.63
2022-10-13T23:51:33.973Z,99941.97
2022-10-13T23:54:02.512Z,99936.84
2022-10-13T23:56:31.394Z,99943.66
2022-10-13T23:59:02.173Z,99947.09
